sensor_id;sensor_type;location;lat;lon;timestamp;P1;durP1;ratioP1;P2;durP2;ratioP2
13967;SDS011;39536;52.198;9.920;2023-05-07T00:00:22;35.40;;;29.77;;
13967;SDS011;39536;52.198;9.920;2023-05-07T00:02:50;37.27;;;31.83;;
13967;SDS011;39536;52.198;9.920;2023-05-07T00:05:17;39.37;;;32.10;;
13967;SDS011;39536;52.198;9.920;2023-05-07T00:07:44;42.37;;;33.17;;
13967;SDS011;39536;52.198;9.920;2023-05-07T00:10:10;42.60;;;33.27;;
13967;SDS011;39536;52.198;9.920;2023-05-07T00:12:37;42.07;;;32.23;;
13967;SDS011;39536;52.198;9.920;2023-05-07T00:15:05;39.87;;;31.77;;
13967;SDS011;39536;52.198;9.920;2023-05-07T00:17:32;43.77;;;32.23;;
13967;SDS011;39536;52.198;9.920;2023-05-07T00:20:00;41.13;;;31.03;;
13967;SDS011;39536;52.198;9.920;2023-05-07T00:22:28;43.97;;;32.97;;
13967;SDS011;39536;52.198;9.920;2023-05-07T00:24:55;44.73;;;33.80;;
13967;SDS011;39536;52.198;9.920;2023-05-07T00:27:21;38.50;;;30.23;;
13967;SDS011;39536;52.198;9.920;2023-05-07T00:29:48;39.17;;;30.87;;
13967;SDS011;39536;52.198;9.920;2023-05-07T00:32:14;39.90;;;30.53;;
13967;SDS011;39536;52.198;9.920;2023-05-07T00:34:41;37.43;;;30.23;;
13967;SDS011;39536;52.198;9.920;2023-05-07T00:37:10;36.77;;;29.60;;
13967;SDS011;39536;52.198;9.920;2023-05-07T00:39:37;38.80;;;29.03;;
13967;SDS011;39536;52.198;9.920;2023-05-07T00:42:03;37.40;;;29.43;;
13967;SDS011;39536;52.198;9.920;2023-05-07T00:44:30;36.50;;;29.70;;
13967;SDS011;39536;52.198;9.920;2023-05-07T00:46:57;40.17;;;31.60;;
13967;SDS011;39536;52.198;9.920;2023-05-07T00:49:23;41.90;;;30.47;;
13967;SDS011;39536;52.198;9.920;2023-05-07T00:52:00;40.83;;;32.03;;
13967;SDS011;39536;52.198;9.920;2023-05-07T00:54:29;41.13;;;30.43;;
13967;SDS011;39536;52.198;9.920;2023-05-07T00:56:55;45.30;;;33.70;;
13967;SDS011;39536;52.198;9.920;2023-05-07T00:59:22;49.03;;;33.17;;
13967;SDS011;39536;52.198;9.920;2023-05-07T01:01:49;47.17;;;34.87;;
13967;SDS011;39536;52.198;9.920;2023-05-07T01:04:17;45.00;;;32.83;;
13967;SDS011;39536;52.198;9.920;2023-05-07T01:06:43;44.70;;;33.23;;
13967;SDS011;39536;52.198;9.920;2023-05-07T01:09:11;45.63;;;32.17;;
13967;SDS011;39536;52.198;9.920;2023-05-07T01:11:39;44.63;;;31.60;;
13967;SDS011;39536;52.198;9.920;2023-05-07T01:14:07;42.53;;;31.37;;
13967;SDS011;39536;52.198;9.920;2023-05-07T01:16:35;49.20;;;33.03;;
13967;SDS011;39536;52.198;9.920;2023-05-07T01:19:02;49.27;;;33.17;;
13967;SDS011;39536;52.198;9.920;2023-05-07T01:21:30;41.03;;;31.50;;
13967;SDS011;39536;52.198;9.920;2023-05-07T01:24:00;44.30;;;32.37;;
13967;SDS011;39536;52.198;9.920;2023-05-07T01:26:27;48.03;;;33.40;;
13967;SDS011;39536;52.198;9.920;2023-05-07T01:28:53;47.57;;;32.43;;
13967;SDS011;39536;52.198;9.920;2023-05-07T01:31:20;42.93;;;31.20;;
13967;SDS011;39536;52.198;9.920;2023-05-07T01:33:47;42.83;;;30.70;;
13967;SDS011;39536;52.198;9.920;2023-05-07T01:36:16;31.57;;;27.83;;
13967;SDS011;39536;52.198;9.920;2023-05-07T01:38:44;35.77;;;27.30;;
13967;SDS011;39536;52.198;9.920;2023-05-07T01:41:13;28.87;;;25.00;;
13967;SDS011;39536;52.198;9.920;2023-05-07T01:43:40;28.23;;;25.13;;
13967;SDS011;39536;52.198;9.920;2023-05-07T01:46:07;34.10;;;26.30;;
13967;SDS011;39536;52.198;9.920;2023-05-07T01:48:35;28.30;;;25.27;;
13967;SDS011;39536;52.198;9.920;2023-05-07T01:51:03;29.90;;;24.73;;
13967;SDS011;39536;52.198;9.920;2023-05-07T01:53:35;26.87;;;23.77;;
13967;SDS011;39536;52.198;9.920;2023-05-07T01:56:01;31.67;;;24.00;;
13967;SDS011;39536;52.198;9.920;2023-05-07T01:58:30;27.13;;;24.17;;
13967;SDS011;39536;52.198;9.920;2023-05-07T02:00:56;30.37;;;24.80;;
13967;SDS011;39536;52.198;9.920;2023-05-07T02:03:23;30.47;;;24.03;;
13967;SDS011;39536;52.198;9.920;2023-05-07T02:05:49;24.80;;;21.73;;
13967;SDS011;39536;52.198;9.920;2023-05-07T02:08:16;25.30;;;22.80;;
13967;SDS011;39536;52.198;9.920;2023-05-07T02:10:42;23.33;;;21.03;;
13967;SDS011;39536;52.198;9.920;2023-05-07T02:13:09;23.17;;;20.97;;
13967;SDS011;39536;52.198;9.920;2023-05-07T02:15:36;22.03;;;19.93;;
13967;SDS011;39536;52.198;9.920;2023-05-07T02:18:03;22.37;;;20.17;;
13967;SDS011;39536;52.198;9.920;2023-05-07T02:20:31;21.83;;;19.80;;
13967;SDS011;39536;52.198;9.920;2023-05-07T02:22:58;23.77;;;20.50;;
13967;SDS011;39536;52.198;9.920;2023-05-07T02:25:25;21.43;;;19.40;;
13967;SDS011;39536;52.198;9.920;2023-05-07T02:27:52;23.37;;;20.87;;
13967;SDS011;39536;52.198;9.920;2023-05-07T02:30:18;23.00;;;20.77;;
13967;SDS011;39536;52.198;9.920;2023-05-07T02:32:47;20.83;;;18.93;;
13967;SDS011;39536;52.198;9.920;2023-05-07T02:35:14;22.90;;;20.60;;
13967;SDS011;39536;52.198;9.920;2023-05-07T02:37:40;22.60;;;20.27;;
13967;SDS011;39536;52.198;9.920;2023-05-07T02:40:07;19.60;;;17.97;;
13967;SDS011;39536;52.198;9.920;2023-05-07T02:42:34;21.43;;;19.33;;
13967;SDS011;39536;52.198;9.920;2023-05-07T02:45:01;20.03;;;18.03;;
13967;SDS011;39536;52.198;9.920;2023-05-07T02:47:27;19.93;;;18.20;;
13967;SDS011;39536;52.198;9.920;2023-05-07T02:49:55;21.57;;;19.57;;
13967;SDS011;39536;52.198;9.920;2023-05-07T02:52:22;21.13;;;19.33;;
13967;SDS011;39536;52.198;9.920;2023-05-07T02:54:49;20.77;;;18.93;;
13967;SDS011;39536;52.198;9.920;2023-05-07T02:57:15;22.27;;;20.37;;
13967;SDS011;39536;52.198;9.920;2023-05-07T02:59:42;22.60;;;20.70;;
13967;SDS011;39536;52.198;9.920;2023-05-07T03:02:08;22.70;;;20.70;;
13967;SDS011;39536;52.198;9.920;2023-05-07T03:04:35;23.17;;;21.17;;
13967;SDS011;39536;52.198;9.920;2023-05-07T03:07:03;21.60;;;19.70;;
13967;SDS011;39536;52.198;9.920;2023-05-07T03:09:30;20.97;;;19.17;;
13967;SDS011;39536;52.198;9.920;2023-05-07T03:11:56;23.20;;;21.10;;
13967;SDS011;39536;52.198;9.920;2023-05-07T03:14:23;27.13;;;23.20;;
13967;SDS011;39536;52.198;9.920;2023-05-07T03:16:50;23.87;;;21.80;;
13967;SDS011;39536;52.198;9.920;2023-05-07T03:19:16;23.17;;;21.20;;
13967;SDS011;39536;52.198;9.920;2023-05-07T03:21:43;23.53;;;21.37;;
13967;SDS011;39536;52.198;9.920;2023-05-07T03:24:11;24.17;;;21.87;;
13967;SDS011;39536;52.198;9.920;2023-05-07T03:26:37;22.17;;;20.27;;
13967;SDS011;39536;52.198;9.920;2023-05-07T03:29:04;23.23;;;20.93;;
13967;SDS011;39536;52.198;9.920;2023-05-07T03:31:30;21.60;;;19.63;;
13967;SDS011;39536;52.198;9.920;2023-05-07T03:33:57;23.20;;;20.93;;
13967;SDS011;39536;52.198;9.920;2023-05-07T03:36:24;23.07;;;20.80;;
13967;SDS011;39536;52.198;9.920;2023-05-07T03:38:51;21.60;;;19.70;;
13967;SDS011;39536;52.198;9.920;2023-05-07T03:41:19;22.17;;;19.97;;
13967;SDS011;39536;52.198;9.920;2023-05-07T03:43:46;22.90;;;20.70;;
13967;SDS011;39536;52.198;9.920;2023-05-07T03:46:12;22.43;;;20.37;;
13967;SDS011;39536;52.198;9.920;2023-05-07T03:48:39;24.90;;;22.60;;
13967;SDS011;39536;52.198;9.920;2023-05-07T03:51:06;22.87;;;20.77;;
13967;SDS011;39536;52.198;9.920;2023-05-07T03:53:32;22.97;;;20.93;;
13967;SDS011;39536;52.198;9.920;2023-05-07T03:55:59;21.60;;;19.73;;
13967;SDS011;39536;52.198;9.920;2023-05-07T03:58:27;19.97;;;18.07;;
13967;SDS011;39536;52.198;9.920;2023-05-07T04:00:53;21.73;;;19.83;;
13967;SDS011;39536;52.198;9.920;2023-05-07T04:03:20;21.23;;;19.23;;
13967;SDS011;39536;52.198;9.920;2023-05-07T04:05:46;21.43;;;19.50;;
13967;SDS011;39536;52.198;9.920;2023-05-07T04:08:13;21.10;;;19.13;;
13967;SDS011;39536;52.198;9.920;2023-05-07T04:10:40;21.83;;;19.83;;
13967;SDS011;39536;52.198;9.920;2023-05-07T04:13:06;21.93;;;19.90;;
13967;SDS011;39536;52.198;9.920;2023-05-07T04:15:34;21.47;;;19.47;;
13967;SDS011;39536;52.198;9.920;2023-05-07T04:18:01;21.53;;;19.23;;
13967;SDS011;39536;52.198;9.920;2023-05-07T04:20:28;20.07;;;17.93;;
13967;SDS011;39536;52.198;9.920;2023-05-07T04:22:54;21.40;;;19.30;;
13967;SDS011;39536;52.198;9.920;2023-05-07T04:25:21;19.50;;;17.73;;
13967;SDS011;39536;52.198;9.920;2023-05-07T04:27:51;19.37;;;17.50;;
13967;SDS011;39536;52.198;9.920;2023-05-07T04:30:18;19.33;;;17.53;;
13967;SDS011;39536;52.198;9.920;2023-05-07T04:32:46;19.30;;;17.40;;
13967;SDS011;39536;52.198;9.920;2023-05-07T04:35:13;18.43;;;16.93;;
13967;SDS011;39536;52.198;9.920;2023-05-07T04:37:40;17.97;;;16.37;;
13967;SDS011;39536;52.198;9.920;2023-05-07T04:40:07;18.47;;;16.77;;
13967;SDS011;39536;52.198;9.920;2023-05-07T04:42:35;16.67;;;15.27;;
13967;SDS011;39536;52.198;9.920;2023-05-07T04:45:01;19.17;;;17.57;;
13967;SDS011;39536;52.198;9.920;2023-05-07T04:47:29;17.77;;;16.17;;
13967;SDS011;39536;52.198;9.920;2023-05-07T04:49:58;17.40;;;16.00;;
13967;SDS011;39536;52.198;9.920;2023-05-07T04:52:24;18.20;;;16.40;;
13967;SDS011;39536;52.198;9.920;2023-05-07T04:54:51;19.03;;;17.00;;
13967;SDS011;39536;52.198;9.920;2023-05-07T04:57:18;18.17;;;16.63;;
13967;SDS011;39536;52.198;9.920;2023-05-07T04:59:44;17.03;;;15.53;;
13967;SDS011;39536;52.198;9.920;2023-05-07T05:02:11;18.33;;;16.53;;
13967;SDS011;39536;52.198;9.920;2023-05-07T05:04:37;15.90;;;14.60;;
13967;SDS011;39536;52.198;9.920;2023-05-07T05:07:05;16.07;;;14.43;;
13967;SDS011;39536;52.198;9.920;2023-05-07T05:09:32;16.50;;;15.00;;
13967;SDS011;39536;52.198;9.920;2023-05-07T05:11:59;16.03;;;14.70;;
13967;SDS011;39536;52.198;9.920;2023-05-07T05:14:25;16.47;;;15.07;;
13967;SDS011;39536;52.198;9.920;2023-05-07T05:16:52;15.27;;;14.00;;
13967;SDS011;39536;52.198;9.920;2023-05-07T05:19:18;15.80;;;14.30;;
13967;SDS011;39536;52.198;9.920;2023-05-07T05:21:45;15.30;;;14.00;;
13967;SDS011;39536;52.198;9.920;2023-05-07T05:24:13;14.77;;;13.57;;
13967;SDS011;39536;52.198;9.920;2023-05-07T05:26:40;14.40;;;13.10;;
13967;SDS011;39536;52.198;9.920;2023-05-07T05:29:06;14.70;;;13.50;;
13967;SDS011;39536;52.198;9.920;2023-05-07T05:31:33;14.70;;;13.50;;
13967;SDS011;39536;52.198;9.920;2023-05-07T05:34:00;13.07;;;11.87;;
13967;SDS011;39536;52.198;9.920;2023-05-07T05:36:26;14.90;;;13.70;;
13967;SDS011;39536;52.198;9.920;2023-05-07T05:38:53;14.43;;;13.33;;
13967;SDS011;39536;52.198;9.920;2023-05-07T05:41:21;13.87;;;12.70;;
13967;SDS011;39536;52.198;9.920;2023-05-07T05:43:48;14.40;;;13.27;;
13967;SDS011;39536;52.198;9.920;2023-05-07T05:46:14;13.93;;;12.87;;
13967;SDS011;39536;52.198;9.920;2023-05-07T05:48:41;13.97;;;12.97;;
13967;SDS011;39536;52.198;9.920;2023-05-07T05:51:08;13.47;;;12.27;;
13967;SDS011;39536;52.198;9.920;2023-05-07T05:53:34;14.50;;;13.30;;
13967;SDS011;39536;52.198;9.920;2023-05-07T05:56:02;13.20;;;12.03;;
13967;SDS011;39536;52.198;9.920;2023-05-07T05:58:30;13.17;;;12.17;;
13967;SDS011;39536;52.198;9.920;2023-05-07T06:00:57;13.57;;;12.47;;
13967;SDS011;39536;52.198;9.920;2023-05-07T06:03:24;12.77;;;11.77;;
13967;SDS011;39536;52.198;9.920;2023-05-07T06:05:51;13.20;;;12.20;;
13967;SDS011;39536;52.198;9.920;2023-05-07T06:08:17;14.07;;;12.63;;
13967;SDS011;39536;52.198;9.920;2023-05-07T06:10:44;13.30;;;12.30;;
13967;SDS011;39536;52.198;9.920;2023-05-07T06:13:11;12.60;;;11.60;;
13967;SDS011;39536;52.198;9.920;2023-05-07T06:15:39;12.53;;;11.60;;
13967;SDS011;39536;52.198;9.920;2023-05-07T06:18:05;10.53;;;9.73;;
13967;SDS011;39536;52.198;9.920;2023-05-07T06:20:32;12.10;;;11.10;;
13967;SDS011;39536;52.198;9.920;2023-05-07T06:22:58;11.97;;;10.97;;
13967;SDS011;39536;52.198;9.920;2023-05-07T06:25:25;10.93;;;10.13;;
13967;SDS011;39536;52.198;9.920;2023-05-07T06:27:51;10.63;;;9.83;;
13967;SDS011;39536;52.198;9.920;2023-05-07T06:30:18;9.83;;;9.03;;
13967;SDS011;39536;52.198;9.920;2023-05-07T06:32:46;10.07;;;9.27;;
13967;SDS011;39536;52.198;9.920;2023-05-07T06:35:13;10.93;;;9.93;;
13967;SDS011;39536;52.198;9.920;2023-05-07T06:37:40;10.90;;;10.00;;
13967;SDS011;39536;52.198;9.920;2023-05-07T06:40:08;11.67;;;10.77;;
13967;SDS011;39536;52.198;9.920;2023-05-07T06:42:35;10.70;;;9.73;;
13967;SDS011;39536;52.198;9.920;2023-05-07T06:45:02;9.97;;;9.27;;
13967;SDS011;39536;52.198;9.920;2023-05-07T06:47:29;10.40;;;9.60;;
13967;SDS011;39536;52.198;9.920;2023-05-07T06:49:57;10.83;;;10.03;;
13967;SDS011;39536;52.198;9.920;2023-05-07T06:52:23;10.17;;;9.37;;
13967;SDS011;39536;52.198;9.920;2023-05-07T06:54:51;9.20;;;8.50;;
13967;SDS011;39536;52.198;9.920;2023-05-07T06:57:17;9.83;;;9.13;;
13967;SDS011;39536;52.198;9.920;2023-05-07T06:59:44;9.93;;;9.23;;
13967;SDS011;39536;52.198;9.920;2023-05-07T07:02:11;10.30;;;9.47;;
13967;SDS011;39536;52.198;9.920;2023-05-07T07:04:37;9.40;;;8.70;;
13967;SDS011;39536;52.198;9.920;2023-05-07T07:07:05;9.07;;;8.37;;
13967;SDS011;39536;52.198;9.920;2023-05-07T07:09:32;9.43;;;8.63;;
13967;SDS011;39536;52.198;9.920;2023-05-07T07:11:58;9.70;;;9.00;;
13967;SDS011;39536;52.198;9.920;2023-05-07T07:14:25;10.37;;;9.57;;
13967;SDS011;39536;52.198;9.920;2023-05-07T07:16:51;10.53;;;9.73;;
13967;SDS011;39536;52.198;9.920;2023-05-07T07:19:21;8.80;;;8.20;;
13967;SDS011;39536;52.198;9.920;2023-05-07T07:21:47;10.03;;;9.33;;
13967;SDS011;39536;52.198;9.920;2023-05-07T07:24:15;10.00;;;9.30;;
13967;SDS011;39536;52.198;9.920;2023-05-07T07:26:46;9.83;;;9.20;;
13967;SDS011;39536;52.198;9.920;2023-05-07T07:29:12;9.87;;;9.17;;
13967;SDS011;39536;52.198;9.920;2023-05-07T07:31:39;9.53;;;8.83;;
13967;SDS011;39536;52.198;9.920;2023-05-07T07:34:05;9.80;;;9.10;;
13967;SDS011;39536;52.198;9.920;2023-05-07T07:36:32;10.07;;;9.40;;
13967;SDS011;39536;52.198;9.920;2023-05-07T07:38:58;10.30;;;9.57;;
13967;SDS011;39536;52.198;9.920;2023-05-07T07:41:26;10.53;;;9.77;;
13967;SDS011;39536;52.198;9.920;2023-05-07T07:43:53;9.07;;;8.47;;
13967;SDS011;39536;52.198;9.920;2023-05-07T07:46:19;10.33;;;9.63;;
13967;SDS011;39536;52.198;9.920;2023-05-07T07:48:46;10.87;;;10.17;;
13967;SDS011;39536;52.198;9.920;2023-05-07T07:51:12;10.83;;;10.13;;
13967;SDS011;39536;52.198;9.920;2023-05-07T07:53:39;13.20;;;12.20;;
13967;SDS011;39536;52.198;9.920;2023-05-07T07:56:06;12.70;;;11.90;;
13967;SDS011;39536;52.198;9.920;2023-05-07T07:58:34;13.33;;;12.43;;
13967;SDS011;39536;52.198;9.920;2023-05-07T08:01:03;13.37;;;12.47;;
13967;SDS011;39536;52.198;9.920;2023-05-07T08:03:30;13.13;;;12.23;;
13967;SDS011;39536;52.198;9.920;2023-05-07T08:05:57;13.57;;;12.57;;
13967;SDS011;39536;52.198;9.920;2023-05-07T08:08:24;13.60;;;12.63;;
13967;SDS011;39536;52.198;9.920;2023-05-07T08:10:50;14.07;;;13.07;;
13967;SDS011;39536;52.198;9.920;2023-05-07T08:13:17;14.00;;;13.00;;
13967;SDS011;39536;52.198;9.920;2023-05-07T08:15:45;13.80;;;12.80;;
13967;SDS011;39536;52.198;9.920;2023-05-07T08:18:11;13.43;;;12.43;;
13967;SDS011;39536;52.198;9.920;2023-05-07T08:20:38;13.17;;;12.27;;
13967;SDS011;39536;52.198;9.920;2023-05-07T08:23:06;13.13;;;12.20;;
13967;SDS011;39536;52.198;9.920;2023-05-07T08:25:33;13.23;;;12.20;;
13967;SDS011;39536;52.198;9.920;2023-05-07T08:27:59;11.57;;;10.43;;
13967;SDS011;39536;52.198;9.920;2023-05-07T08:30:26;13.27;;;12.27;;
13967;SDS011;39536;52.198;9.920;2023-05-07T08:32:54;12.80;;;11.80;;
13967;SDS011;39536;52.198;9.920;2023-05-07T08:35:21;11.90;;;11.10;;
13967;SDS011;39536;52.198;9.920;2023-05-07T08:37:47;11.97;;;11.07;;
13967;SDS011;39536;52.198;9.920;2023-05-07T08:40:14;12.87;;;11.97;;
13967;SDS011;39536;52.198;9.920;2023-05-07T08:42:41;12.30;;;11.40;;
13967;SDS011;39536;52.198;9.920;2023-05-07T08:45:10;12.20;;;11.30;;
13967;SDS011;39536;52.198;9.920;2023-05-07T08:47:40;13.13;;;12.23;;
13967;SDS011;39536;52.198;9.920;2023-05-07T08:50:11;13.90;;;12.80;;
13967;SDS011;39536;52.198;9.920;2023-05-07T08:52:38;12.97;;;12.07;;
13967;SDS011;39536;52.198;9.920;2023-05-07T08:55:05;13.00;;;11.90;;
13967;SDS011;39536;52.198;9.920;2023-05-07T08:57:33;12.20;;;11.40;;
13967;SDS011;39536;52.198;9.920;2023-05-07T09:00:00;13.20;;;12.30;;
13967;SDS011;39536;52.198;9.920;2023-05-07T09:02:27;12.13;;;11.30;;
13967;SDS011;39536;52.198;9.920;2023-05-07T09:04:54;11.90;;;11.00;;
13967;SDS011;39536;52.198;9.920;2023-05-07T09:07:22;11.83;;;11.03;;
13967;SDS011;39536;52.198;9.920;2023-05-07T09:09:48;12.00;;;11.20;;
13967;SDS011;39536;52.198;9.920;2023-05-07T09:12:15;11.57;;;10.87;;
13967;SDS011;39536;52.198;9.920;2023-05-07T09:14:43;12.07;;;11.27;;
13967;SDS011;39536;52.198;9.920;2023-05-07T09:17:10;12.57;;;11.57;;
13967;SDS011;39536;52.198;9.920;2023-05-07T09:19:37;12.77;;;11.77;;
13967;SDS011;39536;52.198;9.920;2023-05-07T09:22:04;12.33;;;11.43;;
13967;SDS011;39536;52.198;9.920;2023-05-07T09:24:34;12.63;;;11.73;;
13967;SDS011;39536;52.198;9.920;2023-05-07T09:27:02;13.73;;;12.73;;
13967;SDS011;39536;52.198;9.920;2023-05-07T09:29:29;12.93;;;12.03;;
13967;SDS011;39536;52.198;9.920;2023-05-07T09:32:00;13.90;;;12.90;;
13967;SDS011;39536;52.198;9.920;2023-05-07T09:34:27;13.47;;;12.47;;
13967;SDS011;39536;52.198;9.920;2023-05-07T09:36:54;14.40;;;13.40;;
13967;SDS011;39536;52.198;9.920;2023-05-07T09:39:21;13.80;;;12.90;;
13967;SDS011;39536;52.198;9.920;2023-05-07T09:41:50;14.90;;;13.83;;
13967;SDS011;39536;52.198;9.920;2023-05-07T09:44:19;16.17;;;14.97;;
13967;SDS011;39536;52.198;9.920;2023-05-07T09:46:47;15.13;;;14.13;;
13967;SDS011;39536;52.198;9.920;2023-05-07T09:49:21;14.73;;;13.73;;
13967;SDS011;39536;52.198;9.920;2023-05-07T09:51:49;15.37;;;14.33;;
13967;SDS011;39536;52.198;9.920;2023-05-07T09:54:17;16.07;;;14.93;;
13967;SDS011;39536;52.198;9.920;2023-05-07T09:56:44;17.30;;;16.07;;
13967;SDS011;39536;52.198;9.920;2023-05-07T09:59:14;16.90;;;15.70;;
13967;SDS011;39536;52.198;9.920;2023-05-07T10:01:42;17.13;;;15.83;;
13967;SDS011;39536;52.198;9.920;2023-05-07T10:04:09;16.03;;;14.83;;
13967;SDS011;39536;52.198;9.920;2023-05-07T10:06:37;16.70;;;15.50;;
13967;SDS011;39536;52.198;9.920;2023-05-07T10:09:04;14.27;;;13.27;;
13967;SDS011;39536;52.198;9.920;2023-05-07T10:11:31;15.33;;;14.23;;
13967;SDS011;39536;52.198;9.920;2023-05-07T10:13:59;15.47;;;14.27;;
13967;SDS011;39536;52.198;9.920;2023-05-07T10:16:28;15.57;;;14.57;;
13967;SDS011;39536;52.198;9.920;2023-05-07T10:18:57;15.40;;;14.10;;
13967;SDS011;39536;52.198;9.920;2023-05-07T10:21:24;13.33;;;12.30;;
13967;SDS011;39536;52.198;9.920;2023-05-07T10:23:55;14.20;;;13.20;;
13967;SDS011;39536;52.198;9.920;2023-05-07T10:26:25;15.20;;;13.90;;
13967;SDS011;39536;52.198;9.920;2023-05-07T10:28:56;14.43;;;13.23;;
13967;SDS011;39536;52.198;9.920;2023-05-07T10:34:22;15.30;;;14.30;;
13967;SDS011;39536;52.198;9.920;2023-05-07T10:36:52;14.60;;;13.53;;
13967;SDS011;39536;52.198;9.920;2023-05-07T10:39:21;15.10;;;14.00;;
13967;SDS011;39536;52.198;9.920;2023-05-07T10:41:48;13.53;;;12.53;;
13967;SDS011;39536;52.198;9.920;2023-05-07T10:44:24;14.37;;;13.37;;
13967;SDS011;39536;52.198;9.920;2023-05-07T10:47:07;13.57;;;12.43;;
13967;SDS011;39536;52.198;9.920;2023-05-07T10:49:34;13.10;;;12.20;;
13967;SDS011;39536;52.198;9.920;2023-05-07T10:52:11;13.60;;;12.70;;
13967;SDS011;39536;52.198;9.920;2023-05-07T10:54:39;13.23;;;12.33;;
13967;SDS011;39536;52.198;9.920;2023-05-07T11:00:01;13.67;;;12.77;;
13967;SDS011;39536;52.198;9.920;2023-05-07T11:05:32;13.40;;;12.30;;
13967;SDS011;39536;52.198;9.920;2023-05-07T11:08:00;12.90;;;12.00;;
13967;SDS011;39536;52.198;9.920;2023-05-07T11:13:15;12.60;;;11.80;;
13967;SDS011;39536;52.198;9.920;2023-05-07T11:15:43;12.60;;;11.70;;
13967;SDS011;39536;52.198;9.920;2023-05-07T11:18:15;11.87;;;11.10;;
13967;SDS011;39536;52.198;9.920;2023-05-07T11:20:49;11.83;;;11.07;;
13967;SDS011;39536;52.198;9.920;2023-05-07T11:26:43;12.07;;;11.13;;
13967;SDS011;39536;52.198;9.920;2023-05-07T11:29:12;11.90;;;11.00;;
13967;SDS011;39536;52.198;9.920;2023-05-07T11:31:40;12.77;;;11.60;;
13967;SDS011;39536;52.198;9.920;2023-05-07T11:34:08;12.97;;;11.97;;
13967;SDS011;39536;52.198;9.920;2023-05-07T11:36:35;12.40;;;11.50;;
13967;SDS011;39536;52.198;9.920;2023-05-07T11:39:22;12.33;;;11.47;;
13967;SDS011;39536;52.198;9.920;2023-05-07T11:41:50;12.17;;;11.37;;
13967;SDS011;39536;52.198;9.920;2023-05-07T11:44:17;12.37;;;11.53;;
13967;SDS011;39536;52.198;9.920;2023-05-07T11:46:43;11.27;;;10.47;;
13967;SDS011;39536;52.198;9.920;2023-05-07T11:49:11;11.00;;;10.30;;
13967;SDS011;39536;52.198;9.920;2023-05-07T11:51:38;11.33;;;10.57;;
13967;SDS011;39536;52.198;9.920;2023-05-07T11:54:06;11.27;;;10.40;;
13967;SDS011;39536;52.198;9.920;2023-05-07T11:56:34;10.10;;;9.50;;
13967;SDS011;39536;52.198;9.920;2023-05-07T11:59:01;11.17;;;10.20;;
13967;SDS011;39536;52.198;9.920;2023-05-07T12:01:27;10.30;;;9.60;;
13967;SDS011;39536;52.198;9.920;2023-05-07T12:03:54;9.63;;;9.07;;
13967;SDS011;39536;52.198;9.920;2023-05-07T12:06:24;9.43;;;8.83;;
13967;SDS011;39536;52.198;9.920;2023-05-07T12:08:52;10.47;;;9.77;;
13967;SDS011;39536;52.198;9.920;2023-05-07T12:11:21;9.40;;;8.80;;
13967;SDS011;39536;52.198;9.920;2023-05-07T12:13:50;9.07;;;8.53;;
13967;SDS011;39536;52.198;9.920;2023-05-07T12:16:17;8.60;;;8.10;;
13967;SDS011;39536;52.198;9.920;2023-05-07T12:18:44;8.70;;;8.10;;
13967;SDS011;39536;52.198;9.920;2023-05-07T12:21:11;8.47;;;7.97;;
13967;SDS011;39536;52.198;9.920;2023-05-07T12:23:39;9.67;;;8.87;;
13967;SDS011;39536;52.198;9.920;2023-05-07T12:26:06;9.10;;;8.40;;
13967;SDS011;39536;52.198;9.920;2023-05-07T12:28:35;8.93;;;8.33;;
13967;SDS011;39536;52.198;9.920;2023-05-07T12:31:03;8.67;;;8.10;;
13967;SDS011;39536;52.198;9.920;2023-05-07T12:33:31;8.50;;;8.00;;
13967;SDS011;39536;52.198;9.920;2023-05-07T12:35:58;9.27;;;8.67;;
13967;SDS011;39536;52.198;9.920;2023-05-07T12:38:32;8.30;;;7.80;;
13967;SDS011;39536;52.198;9.920;2023-05-07T12:41:02;9.00;;;8.50;;
13967;SDS011;39536;52.198;9.920;2023-05-07T12:43:29;10.00;;;9.40;;
13967;SDS011;39536;52.198;9.920;2023-05-07T12:45:56;9.87;;;9.27;;
13967;SDS011;39536;52.198;9.920;2023-05-07T12:48:23;9.90;;;9.20;;
13967;SDS011;39536;52.198;9.920;2023-05-07T12:50:52;10.50;;;9.83;;
13967;SDS011;39536;52.198;9.920;2023-05-07T12:53:20;10.97;;;10.27;;
13967;SDS011;39536;52.198;9.920;2023-05-07T12:55:49;11.47;;;10.77;;
13967;SDS011;39536;52.198;9.920;2023-05-07T12:58:19;12.00;;;11.20;;
13967;SDS011;39536;52.198;9.920;2023-05-07T13:00:47;12.73;;;11.93;;
13967;SDS011;39536;52.198;9.920;2023-05-07T13:03:20;13.40;;;12.27;;
13967;SDS011;39536;52.198;9.920;2023-05-07T13:05:49;12.27;;;11.47;;
13967;SDS011;39536;52.198;9.920;2023-05-07T13:08:23;13.67;;;12.37;;
13967;SDS011;39536;52.198;9.920;2023-05-07T13:10:53;13.30;;;12.20;;
13967;SDS011;39536;52.198;9.920;2023-05-07T13:13:21;11.90;;;11.20;;
13967;SDS011;39536;52.198;9.920;2023-05-07T13:15:48;11.87;;;11.17;;
13967;SDS011;39536;52.198;9.920;2023-05-07T13:18:14;11.50;;;10.80;;
13967;SDS011;39536;52.198;9.920;2023-05-07T13:20:41;11.87;;;11.17;;
13967;SDS011;39536;52.198;9.920;2023-05-07T13:23:08;12.07;;;11.33;;
13967;SDS011;39536;52.198;9.920;2023-05-07T13:25:34;12.43;;;11.63;;
13967;SDS011;39536;52.198;9.920;2023-05-07T13:28:01;12.10;;;11.40;;
13967;SDS011;39536;52.198;9.920;2023-05-07T13:30:29;12.43;;;11.63;;
13967;SDS011;39536;52.198;9.920;2023-05-07T13:32:56;12.30;;;11.60;;
13967;SDS011;39536;52.198;9.920;2023-05-07T13:35:22;11.83;;;11.03;;
13967;SDS011;39536;52.198;9.920;2023-05-07T13:37:49;11.67;;;10.97;;
13967;SDS011;39536;52.198;9.920;2023-05-07T13:40:17;12.03;;;11.23;;
13967;SDS011;39536;52.198;9.920;2023-05-07T13:42:43;11.77;;;11.07;;
13967;SDS011;39536;52.198;9.920;2023-05-07T13:45:10;12.10;;;11.40;;
13967;SDS011;39536;52.198;9.920;2023-05-07T13:47:40;11.33;;;10.63;;
13967;SDS011;39536;52.198;9.920;2023-05-07T13:50:07;11.50;;;10.83;;
13967;SDS011;39536;52.198;9.920;2023-05-07T13:52:34;11.90;;;10.93;;
13967;SDS011;39536;52.198;9.920;2023-05-07T13:55:01;10.93;;;10.33;;
13967;SDS011;39536;52.198;9.920;2023-05-07T13:57:27;10.97;;;10.37;;
13967;SDS011;39536;52.198;9.920;2023-05-07T13:59:54;10.73;;;10.13;;
13967;SDS011;39536;52.198;9.920;2023-05-07T14:02:21;11.10;;;10.40;;
13967;SDS011;39536;52.198;9.920;2023-05-07T14:04:48;10.90;;;10.20;;
13967;SDS011;39536;52.198;9.920;2023-05-07T14:07:15;9.77;;;9.27;;
13967;SDS011;39536;52.198;9.920;2023-05-07T14:09:41;10.27;;;9.67;;
13967;SDS011;39536;52.198;9.920;2023-05-07T14:12:08;10.50;;;9.87;;
13967;SDS011;39536;52.198;9.920;2023-05-07T14:14:34;9.80;;;9.20;;
13967;SDS011;39536;52.198;9.920;2023-05-07T14:17:01;10.13;;;9.30;;
13967;SDS011;39536;52.198;9.920;2023-05-07T14:19:27;9.73;;;9.13;;
13967;SDS011;39536;52.198;9.920;2023-05-07T14:21:56;10.57;;;9.87;;
13967;SDS011;39536;52.198;9.920;2023-05-07T14:24:24;11.77;;;10.87;;
13967;SDS011;39536;52.198;9.920;2023-05-07T14:26:51;10.57;;;9.93;;
13967;SDS011;39536;52.198;9.920;2023-05-07T14:29:17;10.47;;;9.83;;
13967;SDS011;39536;52.198;9.920;2023-05-07T14:31:44;10.37;;;9.73;;
13967;SDS011;39536;52.198;9.920;2023-05-07T14:34:11;10.93;;;10.23;;
13967;SDS011;39536;52.198;9.920;2023-05-07T14:36:40;11.30;;;10.60;;
13967;SDS011;39536;52.198;9.920;2023-05-07T14:39:09;10.93;;;10.20;;
13967;SDS011;39536;52.198;9.920;2023-05-07T14:41:36;11.60;;;10.70;;